Terminal Aerodrome Forecast
Issued by NWS Des Moines, IA

Home | Current Version | Previous Version | Text Only | Print | Product List | Glossary On
Versions: 1 2 3 4 5 6 7 8 9 10 11 12 13 14 15 16 17 18 19 20 21 22 23 24 25 26 27 28 29 30 31 32 33 34 35 36 37 38 39 40 41 42 43 44 45 46
000
FTUS43 KDMX 241738
TAFDSM
TAF
KDSM 241738Z 2418/2518 10010KT 6SM BR OVC005
     FM242200 09012G21KT P6SM OVC008
     FM250100 10011G18KT 3SM -RA VCTS OVC010CB
     FM250500 14009KT 2SM -RASN BR OVC007
     FM250800 25007KT 2SM -SN OVC006
     FM251300 32014G22KT 1SM -SN BR OVC004=

USA.gov is the U.S. government's official web portal to all federal, state and local government web resources and services.